This is the latest recevied weather packets stored in our database for station/object YO8RIX. If no packets are shown the sender has not sent any weather packets the latest 10 day(s).
| Time | Temp. | Humidity | Pressure | Rain* | Wind** | Luminosity | Snow |
|---|---|---|---|---|---|---|---|
| 1777523124 | 4.44° C | 63% | 1027.8 hPa | 0 mm | - | 68 W/m² | - |
| 1777517127 | 2.78° C | 68% | 1027.1 hPa | 0 mm | - | 0 W/m² | - |
| 1777509920 | 3.33° C | 62% | 1026.6 hPa | 0 mm | - | 0 W/m² | - |
| 1777508732 | 3.33° C | 60% | 1026.6 hPa | 0 mm | - | 0 W/m² | - |
| 1777506316 | 3.89° C | 61% | 1026.5 hPa | 0 mm | - | 0 W/m² | - |
| 1777503942 | 5° C | 56% | 1026.3 hPa | 0 mm | - | 0 W/m² | - |
| 1777494924 | 7.22° C | 48% | 1025.5 hPa | 0 mm | - | 0 W/m² | - |
| 1777494321 | 7.78° C | 48% | 1025.5 hPa | 0 mm | - | 0 W/m² | - |
| 1777493717 | 7.78° C | 46% | 1025.3 hPa | 0 mm | - | 0 W/m² | - |
| 1777492529 | 7.78° C | 45% | 1025.2 hPa | 0 mm | - | 0 W/m² | - |
| 1777491322 | 8.33° C | 44% | 1025.1 hPa | 0 mm | - | 0 W/m² | - |
| 1777490718 | 8.33° C | 44% | 1025 hPa | 0 mm | - | 0 W/m² | - |
| 1777485927 | 8.89° C | 45% | 1024.3 hPa | 0 mm | - | 0 W/m² | - |
| 1777485325 | 8.89° C | 45% | 1024.2 hPa | 0 mm | - | 0 W/m² | - |
| 1777484720 | 8.89° C | 45% | 1024.2 hPa | 0 mm | - | 0 W/m² | - |
| 1777481720 | 9.44° C | 42% | 1023.5 hPa | 0 mm | - | 7 W/m² | - |
| 1777469722 | 10.56° C | 40% | 1022.9 hPa | 0 mm | - | 108 W/m² | - |
| 1777457123 | 10° C | 36% | 1023.4 hPa | 0 mm | - | 321 W/m² | - |
| 1777456519 | 9.44° C | 37% | 1023.6 hPa | 0 mm | - | 294 W/m² | - |
| 1777455332 | 9.44° C | 41% | 1023.6 hPa | 0 mm | - | 341 W/m² | - |
| 1777452916 | 9.44° C | 40% | 1023.6 hPa | 0 mm | - | 302 W/m² | - |
| 1777449374 | 8.89° C | 44% | 1023.6 hPa | 0 mm | - | 393 W/m² | - |
| 1777444544 | 7.78° C | 47% | 1023.4 hPa | 0 mm | - | 198 W/m² | - |
| 1777442736 | 7.22° C | 49% | 1023.4 hPa | 0 mm | - | 240 W/m² | - |
| 1777442128 | 7.22° C | 50% | 1023.4 hPa | 0 mm | - | 206 W/m² | - |
* Rain latest hour (hover to see other rain measurements)
** Current wind speed in m/s (hover to see current wind gust speed)